Time;durP1;ratioP1;P1;durP2;ratioP2;P2;SDS_P1;SDS_P2;PMS_P1;PMS_P2;Temp;Humidity;BMP_temperature;BMP_pressure;BME280_temperature;BME280_humidity;BME280_pressure;Samples;Min_cycle;Max_cycle;Signal;HPM_P1;HPM_P2
2023/02/15 00:00:08;;;;;;;0.85;0.85;;;5.00;75.30;;;4.21;63.12;96328.75;4993520;28;20191;-17
2023/02/15 00:02:34;;;;;;;0.80;0.80;;;4.90;75.20;;;4.20;62.84;96332.28;4993482;28;20276;-17
2023/02/15 00:05:02;;;;;;;0.70;0.70;;;4.90;75.20;;;4.20;63.06;96326.25;4992920;28;20206;-17
2023/02/15 00:07:29;;;;;;;0.70;0.70;;;4.90;75.20;;;4.21;62.80;96327.91;4993527;28;20210;-17
2023/02/15 00:09:56;;;;;;;0.70;0.70;;;4.80;75.10;;;4.22;62.83;96321.78;4993361;28;20263;-17
2023/02/15 00:12:23;;;;;;;0.60;0.60;;;4.80;75.20;;;4.18;63.00;96328.16;4993002;28;20214;-17
2023/02/15 00:14:50;;;;;;;0.80;0.80;;;4.80;75.20;;;4.20;62.91;96323.66;4992933;28;20194;-17
2023/02/15 00:17:17;;;;;;;0.80;0.80;;;4.80;75.30;;;4.20;62.94;96321.91;4993236;28;20212;-17
2023/02/15 00:19:44;;;;;;;0.80;0.80;;;4.80;75.30;;;4.19;63.04;96319.41;4992129;28;20202;-17
2023/02/15 00:22:11;;;;;;;0.70;0.70;;;4.80;75.30;;;4.17;63.02;96316.94;4993040;28;20202;-17
2023/02/15 00:24:38;;;;;;;0.70;0.70;;;4.80;75.40;;;4.16;62.70;96313.53;4992747;28;20204;-17
2023/02/15 00:27:05;;;;;;;0.70;0.70;;;4.70;75.40;;;4.15;63.20;96311.03;4993070;28;20201;-17
2023/02/15 00:29:32;;;;;;;0.80;0.80;;;4.70;75.40;;;4.15;62.92;96313.63;4991696;28;20217;-17
2023/02/15 00:31:59;;;;;;;0.70;0.70;;;4.80;75.50;;;4.10;63.01;96319.19;4992838;28;20214;-17
2023/02/15 00:34:28;;;;;;;0.90;0.90;;;4.80;75.50;;;4.06;62.91;96314.34;4992729;28;20194;-17
2023/02/15 00:36:56;;;;;;;0.70;0.70;;;4.70;75.40;;;4.04;63.11;96311.88;4991884;28;20213;-18
2023/02/15 00:39:24;;;;;;;0.73;0.73;;;4.70;75.40;;;4.03;63.01;96311.97;4992719;28;20206;-17
2023/02/15 00:41:51;;;;;;;0.70;0.70;;;4.70;75.40;;;3.97;63.32;96313.28;4992826;28;20195;-17
2023/02/15 00:44:18;;;;;;;0.70;0.70;;;4.70;75.40;;;3.94;63.49;96303.09;4991582;28;20213;-17
2023/02/15 00:46:45;;;;;;;0.80;0.80;;;4.70;75.40;;;3.87;63.28;96302.75;4992617;28;20205;-17
2023/02/15 00:49:12;;;;;;;0.60;0.60;;;4.70;75.40;;;3.77;63.46;96299.19;4991668;28;20209;-17
2023/02/15 00:51:39;;;;;;;0.80;0.80;;;4.60;75.30;;;3.78;63.54;96306.03;4991752;28;20212;-17
2023/02/15 00:54:07;;;;;;;0.70;0.70;;;4.60;75.30;;;3.77;63.62;96302.63;4991465;28;20213;-20
2023/02/15 00:56:34;;;;;;;0.70;0.70;;;4.60;75.40;;;3.80;63.74;96307.56;4992620;28;20645;-17
2023/02/15 00:59:01;;;;;;;0.70;0.70;;;4.50;75.50;;;3.80;63.62;96306.75;4991620;28;20194;-18
2023/02/15 01:01:28;;;;;;;0.80;0.80;;;4.50;75.60;;;3.83;63.34;96307.34;4991702;28;20206;-17
2023/02/15 01:03:56;;;;;;;0.60;0.60;;;4.50;75.60;;;3.88;63.67;96304.38;4991449;28;20714;-17
2023/02/15 01:06:23;;;;;;;0.80;0.80;;;4.50;75.60;;;3.83;63.56;96298.72;4991626;28;20230;-17
2023/02/15 01:08:50;;;;;;;0.80;0.80;;;4.50;75.70;;;3.85;63.63;96302.84;4991663;28;20210;-17
2023/02/15 01:11:23;;;;;;;0.70;0.70;;;4.50;75.70;;;3.84;63.60;96295.19;4992425;28;20255;-17
2023/02/15 01:13:54;;;;;;;0.88;0.88;;;4.50;75.70;;;3.84;63.67;96297.78;4992177;28;20282;-17
2023/02/15 01:16:24;;;;;;;0.60;0.60;;;4.50;75.70;;;3.78;63.61;96293.88;4992416;28;20183;-17
2023/02/15 01:18:52;;;;;;;0.70;0.70;;;4.50;75.60;;;3.80;63.68;96296.38;4992204;28;20535;-17
2023/02/15 01:21:23;;;;;;;0.70;0.70;;;4.50;75.60;;;3.74;64.02;96284.66;4991254;28;20644;-17
2023/02/15 01:23:50;;;;;;;0.80;0.80;;;4.50;75.70;;;3.73;63.98;96289.97;4991517;28;20199;-17
2023/02/15 01:26:17;;;;;;;0.70;0.70;;;4.50;75.60;;;3.69;64.04;96289.38;4992163;28;20198;-17
2023/02/15 01:28:45;;;;;;;0.88;0.88;;;4.40;75.60;;;3.65;63.81;96278.41;4992120;28;20500;-17
2023/02/15 01:31:15;;;;;;;0.60;0.60;;;4.40;75.60;;;3.66;63.73;96279.22;4992104;28;20209;-17
2023/02/15 01:33:46;;;;;;;0.80;0.80;;;4.40;75.70;;;3.62;64.06;96275.22;4992106;28;20507;-17
2023/02/15 01:36:14;;;;;;;0.80;0.80;;;4.40;75.70;;;3.63;63.89;96275.09;4992092;28;20190;-17
2023/02/15 01:38:41;;;;;;;0.60;0.60;;;4.30;75.60;;;3.68;63.72;96277.34;4992047;28;20190;-17
2023/02/15 01:41:22;;;;;;;0.80;0.80;;;4.30;75.70;;;3.71;64.15;96276.28;4994713;28;20193;-17
2023/02/15 01:43:54;;;;;;;0.70;0.70;;;4.30;75.80;;;3.69;63.88;96264.25;4995301;28;20182;-17
2023/02/15 01:46:35;;;;;;;0.70;0.70;;;4.30;75.90;;;3.69;64.07;96260.84;4994381;28;20233;-17
2023/02/15 01:49:12;;;;;;;0.80;0.80;;;4.30;76.00;;;3.71;63.63;96258.13;4995272;28;20212;-17
2023/02/15 01:51:43;;;;;;;0.80;0.80;;;4.30;75.90;;;3.75;63.69;96262.13;4994314;28;20241;-17
2023/02/15 01:54:31;;;;;;;0.70;0.70;;;4.30;75.90;;;3.75;63.77;96249.16;4994040;28;20221;-17
2023/02/15 01:57:05;;;;;;;0.80;0.80;;;4.30;76.00;;;3.72;63.60;96239.03;4978305;28;20198;-17
2023/02/15 01:59:35;;;;;;;0.60;0.60;;;4.30;76.00;;;3.73;63.95;96241.50;4978182;28;20281;-17
2023/02/15 02:02:03;;;;;;;0.90;0.90;;;4.30;75.90;;;3.72;63.87;96231.25;4994224;28;20622;-17
2023/02/15 02:05:02;;;;;;;0.60;0.60;;;4.30;76.00;;;3.70;63.69;96236.56;4977850;28;20198;-17
2023/02/15 02:07:34;;;;;;;0.70;0.70;;;4.30;76.00;;;3.72;63.94;96231.25;4994942;28;20267;-17
2023/02/15 02:10:03;;;;;;;0.80;0.80;;;4.30;75.90;;;3.73;64.09;96227.72;4994187;28;20186;-17
2023/02/15 02:12:33;;;;;;;0.70;0.70;;;4.30;76.30;;;3.69;64.09;96222.75;4994029;28;20206;-17
2023/02/15 02:15:01;;;;;;;0.70;0.70;;;4.30;76.00;;;3.73;63.90;96225.09;4995417;28;20202;-17
2023/02/15 02:18:10;;;;;;;0.70;0.70;;;4.30;76.00;;;3.71;63.60;96225.22;4994324;28;20694;-17
2023/02/15 02:21:26;;;;;;;0.80;0.80;;;4.30;76.00;;;3.73;63.42;96220.72;4994979;28;20198;-17
2023/02/15 02:24:24;;;;;;;0.70;0.70;;;4.30;75.90;;;3.68;63.68;96220.25;4994860;28;20513;-17
2023/02/15 02:27:33;;;;;;;0.70;0.70;;;4.30;75.90;;;3.61;63.84;96225.06;4994505;28;20196;-17
2023/02/15 02:30:36;;;;;;;0.70;0.70;;;4.30;75.90;;;3.55;63.88;96222.13;4994638;28;20196;-17
2023/02/15 02:33:28;;;;;;;0.80;0.80;;;4.30;75.90;;;3.54;64.11;96221.31;4994785;28;20224;-17
2023/02/15 02:36:32;;;;;;;0.80;0.80;;;4.30;75.90;;;3.53;64.09;96217.06;4993484;28;20191;-17
2023/02/15 02:39:27;;;;;;;0.60;0.60;;;4.20;75.90;;;3.55;63.92;96217.75;4994891;28;20209;-17
2023/02/15 02:42:15;;;;;;;0.70;0.70;;;4.20;76.00;;;3.57;64.03;96215.88;4994723;28;20202;-17
2023/02/15 02:44:53;;;;;;;0.90;0.90;;;4.20;76.00;;;3.61;63.91;96214.69;4993555;28;20201;-17
2023/02/15 02:47:38;;;;;;;0.80;0.80;;;4.20;76.00;;;3.65;63.90;96217.88;4993439;28;20190;-17
2023/02/15 02:50:09;;;;;;;0.80;0.80;;;4.20;76.10;;;3.67;63.63;96219.44;4994316;28;20195;-17
2023/02/15 02:52:44;;;;;;;0.70;0.70;;;4.20;76.80;;;3.65;63.92;96218.72;4992306;28;20222;-17
2023/02/15 02:55:48;;;;;;;0.70;0.70;;;4.20;76.10;;;3.66;63.46;96225.56;4993297;28;20174;-17
2023/02/15 02:58:36;;;;;;;0.80;0.80;;;4.20;76.00;;;3.63;63.88;96220.59;4993462;28;20194;-17
2023/02/15 03:01:20;;;;;;;0.60;0.60;;;4.20;76.00;;;3.61;63.75;96217.28;4993294;28;20247;-17
2023/02/15 03:03:53;;;;;;;0.70;0.70;;;4.20;76.00;;;3.60;63.71;96210.47;4977432;28;20194;-17
2023/02/15 03:06:31;;;;;;;0.73;0.73;;;4.20;76.00;;;3.60;63.61;96207.88;4961526;28;20240;-17
2023/02/15 03:09:14;;;;;;;0.70;0.70;;;4.20;76.00;;;3.60;63.56;96204.44;4993150;28;20194;-17
2023/02/15 03:11:43;;;;;;;0.60;0.60;;;4.20;76.00;;;3.58;63.59;96201.16;4993203;28;20179;-17
2023/02/15 03:14:13;;;;;;;0.80;0.80;;;4.20;75.90;;;3.56;63.42;96209.03;4993116;28;20213;-17
2023/02/15 03:16:43;;;;;;;0.70;0.70;;;4.20;75.90;;;3.53;63.45;96201.50;4993914;28;20275;-17
2023/02/15 03:19:18;;;;;;;0.80;0.80;;;4.10;75.80;;;3.49;63.37;96192.28;4993047;28;20228;-17
2023/02/15 03:21:57;;;;;;;0.80;0.80;;;4.10;75.80;;;3.51;63.60;96198.19;4993892;28;20193;-17
2023/02/15 03:24:37;;;;;;;0.90;0.90;;;4.10;75.80;;;3.42;63.70;96184.16;4993780;28;20598;-17
2023/02/15 03:27:11;;;;;;;0.80;0.80;;;4.10;75.90;;;3.43;63.74;96184.97;4992857;28;20251;-17
2023/02/15 03:29:39;;;;;;;0.60;0.60;;;4.10;75.90;;;3.40;63.61;96182.63;4993151;28;20315;-17
2023/02/15 03:32:11;;;;;;;0.60;0.60;;;4.10;75.90;;;3.39;63.59;96184.38;4992835;28;20206;-17
2023/02/15 03:34:38;;;;;;;0.80;0.80;;;4.10;76.00;;;3.35;63.67;96185.56;4993813;28;20194;-17
2023/02/15 03:37:36;;;;;;;0.80;0.80;;;4.00;75.90;;;3.35;63.63;96180.38;4993589;28;20259;-17
2023/02/15 03:43:23;;;;;;;0.80;0.80;;;4.00;76.00;;;3.34;64.21;96186.50;4992855;28;20217;-17
2023/02/15 03:45:58;;;;;;;0.70;0.70;;;4.00;76.10;;;3.32;64.11;96183.19;4992614;28;20601;-17
2023/02/15 03:48:37;;;;;;;0.70;0.70;;;4.00;76.10;;;3.29;64.35;96186.84;4992649;28;20192;-17
2023/02/15 03:54:03;;;;;;;0.80;0.80;;;3.90;76.20;;;3.26;64.15;96183.63;4992621;28;20206;-17
2023/02/15 03:56:33;;;;;;;0.80;0.80;;;3.90;76.20;;;3.21;64.22;96184.00;4993293;28;20202;-17
2023/02/15 04:02:01;;;;;;;0.88;0.88;;;3.90;76.20;;;3.17;64.18;96192.94;4993450;28;20273;-17
2023/02/15 04:04:43;;;;;;;0.68;0.68;;;3.90;76.20;;;3.14;64.68;96183.63;4993296;28;20663;-17
2023/02/15 04:07:10;;;;;;;0.80;0.80;;;3.90;76.30;;;3.16;64.57;96186.94;4992260;28;20238;-17
2023/02/15 04:12:22;;;;;;;0.82;0.82;;;3.90;76.30;;;3.18;65.00;96185.03;4993083;28;20197;-17
2023/02/15 04:17:37;;;;;;;0.60;0.60;;;3.80;76.40;;;3.19;65.15;96185.88;4992373;28;20178;-17
2023/02/15 04:25:36;;;;;;;0.80;0.80;;;3.90;76.60;;;3.14;65.03;96177.63;4992888;28;20292;-17
2023/02/15 04:28:03;;;;;;;0.60;0.60;;;3.90;76.60;;;3.10;64.99;96173.59;4993126;28;20210;-17
2023/02/15 04:30:30;;;;;;;0.80;0.80;;;3.90;76.60;;;3.12;64.97;96177.72;4992859;28;20194;-17
2023/02/15 04:32:58;;;;;;;0.80;0.80;;;3.90;76.60;;;3.09;64.83;96167.59;4992828;28;20213;-17
2023/02/15 04:35:25;;;;;;;0.70;0.70;;;3.80;76.50;;;3.07;64.84;96166.06;4992634;28;20198;-17
2023/02/15 04:37:52;;;;;;;0.90;0.90;;;3.80;76.50;;;3.11;64.88;96170.06;4993035;28;20550;-17
2023/02/15 04:40:19;;;;;;;0.70;0.70;;;3.80;76.60;;;3.11;65.12;96175.25;4991802;28;20214;-17
2023/02/15 04:42:49;;;;;;;0.80;0.80;;;3.80;76.60;;;3.10;64.73;96165.81;4992690;28;20198;-17
2023/02/15 04:45:17;;;;;;;0.70;0.70;;;3.80;76.60;;;3.14;64.94;96172.44;4992521;28;20196;-17
2023/02/15 04:47:45;;;;;;;0.70;0.70;;;3.80;76.70;;;3.18;64.96;96168.66;4992866;28;20247;-17
2023/02/15 04:50:12;;;;;;;0.80;0.80;;;3.80;76.70;;;3.20;64.81;96164.19;4992594;28;20263;-17
2023/02/15 04:52:39;;;;;;;0.90;0.90;;;3.80;76.80;;;3.23;64.98;96173.53;4992477;28;20200;-17
2023/02/15 04:55:07;;;;;;;0.60;0.60;;;3.80;76.90;;;3.25;65.06;96171.63;4975498;28;20578;-19
2023/02/15 04:57:33;;;;;;;0.70;0.70;;;3.80;76.90;;;3.26;65.11;96168.94;4992378;28;20198;-18
2023/02/15 05:00:01;;;;;;;0.80;0.80;;;3.80;76.80;;;3.28;65.09;96174.00;4992802;28;20507;-17
2023/02/15 05:02:28;;;;;;;0.80;0.80;;;3.80;76.90;;;3.25;64.93;96172.47;4992522;28;20193;-19
2023/02/15 05:04:55;;;;;;;0.70;0.70;;;3.80;76.80;;;3.24;65.25;96170.00;4992271;28;20637;-17
2023/02/15 05:07:22;;;;;;;0.80;0.80;;;3.90;76.90;;;3.18;65.32;96168.66;4992227;28;20234;-17
2023/02/15 05:09:49;;;;;;;0.80;0.80;;;3.80;76.90;;;3.15;65.07;96164.53;4992571;28;20205;-17
2023/02/15 05:12:16;;;;;;;0.80;0.80;;;3.80;76.90;;;3.12;65.36;96158.75;4992326;28;20691;-17
2023/02/15 05:14:43;;;;;;;0.80;0.80;;;3.90;76.90;;;3.11;65.32;96157.09;4992755;28;20210;-17
2023/02/15 05:17:10;;;;;;;0.80;0.80;;;3.80;76.80;;;3.11;65.27;96155.31;4995570;28;20195;-17
2023/02/15 05:19:37;;;;;;;0.80;0.80;;;3.80;76.80;;;3.07;65.10;96150.50;4995886;28;20190;-17
2023/02/15 05:22:04;;;;;;;0.90;0.90;;;3.80;76.80;;;3.04;64.95;96154.97;4995642;28;20198;-18
2023/02/15 05:30:03;;;;;;;0.70;0.70;;;3.70;76.70;;;2.95;65.26;96165.19;4995824;28;20272;-17
2023/02/15 05:32:30;;;;;;;0.80;0.80;;;3.70;76.70;;;2.94;65.49;96169.56;4994636;28;20198;-17
2023/02/15 05:34:57;;;;;;;0.70;0.70;;;3.70;76.70;;;2.93;65.51;96167.91;4995247;28;20223;-17
2023/02/15 05:37:24;;;;;;;0.80;0.80;;;3.70;76.80;;;2.91;65.29;96166.38;4995408;28;20201;-17
2023/02/15 05:39:51;;;;;;;0.80;0.80;;;3.60;76.70;;;2.88;65.28;96170.84;4995421;28;20652;-17
2023/02/15 05:42:18;;;;;;;0.70;0.70;;;3.60;76.70;;;2.86;65.15;96180.47;4995387;28;20194;-17
2023/02/15 05:44:45;;;;;;;0.80;0.80;;;3.60;76.70;;;2.79;65.28;96168.91;4995365;28;20198;-17
2023/02/15 05:47:12;;;;;;;0.70;0.70;;;3.60;76.70;;;2.83;65.37;96180.72;4995156;28;20248;-17
2023/02/15 05:49:39;;;;;;;0.70;0.70;;;3.60;76.70;;;2.82;65.29;96181.66;4995238;28;20664;-17
2023/02/15 05:52:08;;;;;;;0.88;0.88;;;3.50;76.80;;;2.87;65.38;96183.91;4995255;28;20235;-17
2023/02/15 05:54:35;;;;;;;0.80;0.80;;;3.50;76.80;;;2.88;65.62;96180.34;4995088;28;20654;-17
2023/02/15 05:57:02;;;;;;;0.70;0.70;;;3.50;76.90;;;2.88;65.15;96180.34;4995021;28;20199;-17
2023/02/15 05:59:29;;;;;;;0.70;0.70;;;3.50;77.00;;;2.91;65.49;96193.09;4995236;28;20273;-17
2023/02/15 06:01:56;;;;;;;0.70;0.70;;;3.50;77.00;;;2.90;65.50;96182.84;4995066;28;20202;-17
2023/02/15 06:04:23;;;;;;;0.80;0.80;;;3.50;77.00;;;2.93;65.15;96188.63;4995041;28;20209;-17
2023/02/15 06:06:50;;;;;;;0.80;0.80;;;3.50;77.00;;;2.96;65.09;96195.38;4994674;28;20617;-17
2023/02/15 06:09:18;;;;;;;0.75;0.75;;;3.50;77.00;;;2.94;64.89;96192.03;4978286;28;20510;-17
2023/02/15 06:11:46;;;;;;;0.63;0.63;;;3.50;77.00;;;2.94;65.40;96192.88;4994305;28;20698;-17
2023/02/15 06:14:13;;;;;;;0.70;0.70;;;3.60;77.10;;;2.95;65.11;96189.34;4995090;28;20618;-17
2023/02/15 06:16:40;;;;;;;0.90;0.90;;;3.50;77.10;;;2.99;65.13;96195.97;4994940;28;20217;-17
2023/02/15 06:19:07;;;;;;;0.80;0.80;;;3.60;77.20;;;2.96;65.52;96196.19;4994045;28;20213;-17
2023/02/15 06:21:34;;;;;;;0.90;0.90;;;3.60;77.20;;;2.95;65.55;96201.47;4993863;28;20220;-17
2023/02/15 06:24:01;;;;;;;0.80;0.80;;;3.60;77.20;;;2.96;65.40;96205.72;4994785;28;20199;-17
2023/02/15 06:26:28;;;;;;;0.60;0.60;;;3.60;77.20;;;2.95;65.57;96204.88;4994453;28;20641;-17
2023/02/15 06:28:55;;;;;;;0.80;0.80;;;3.60;77.20;;;2.96;65.31;96203.94;4994677;28;20190;-17
2023/02/15 06:31:23;;;;;;;0.88;0.88;;;3.60;77.30;;;2.98;65.24;96206.41;4994811;28;20688;-17
2023/02/15 06:33:50;;;;;;;0.60;0.60;;;3.60;77.30;;;2.98;65.56;96203.81;4994524;28;20233;-17
2023/02/15 06:36:17;;;;;;;0.80;0.80;;;3.60;77.20;;;2.92;65.25;96202.53;4994681;28;20216;-17
2023/02/15 06:38:44;;;;;;;0.80;0.80;;;3.60;77.20;;;2.91;65.62;96202.66;4994526;28;20194;-17
2023/02/15 06:41:11;;;;;;;0.60;0.60;;;3.60;77.10;;;2.96;65.45;96213.50;4994490;28;20194;-17
2023/02/15 06:43:38;;;;;;;0.80;0.80;;;3.60;77.20;;;2.95;65.36;96215.25;4961613;28;20202;-17
2023/02/15 06:46:07;;;;;;;0.60;0.60;;;3.60;77.20;;;2.94;65.56;96205.84;4994406;28;20202;-17
2023/02/15 06:48:34;;;;;;;0.60;0.60;;;3.60;77.20;;;2.93;65.54;96206.78;4977406;28;20642;-17
2023/02/15 06:51:01;;;;;;;0.80;0.80;;;3.60;77.20;;;2.96;65.49;96208.31;4994508;28;20213;-17
2023/02/15 06:53:28;;;;;;;0.70;0.70;;;3.60;77.20;;;2.93;65.63;96209.38;4994216;28;20218;-17
2023/02/15 06:56:08;;;;;;;0.80;0.80;;;3.60;77.20;;;2.92;65.24;96204.28;4994124;28;20281;-17
2023/02/15 06:58:37;;;;;;;0.80;0.80;;;3.60;77.20;;;2.92;65.55;96220.66;4993274;28;20523;-17
2023/02/15 07:01:05;;;;;;;0.80;0.80;;;3.60;77.10;;;2.86;65.52;96213.34;4993838;28;20224;-17
2023/02/15 07:03:33;;;;;;;0.70;0.70;;;3.70;77.00;;;2.87;65.50;96215.81;4993287;28;20232;-17
2023/02/15 07:06:05;;;;;;;0.80;0.80;;;3.70;77.00;;;2.91;65.57;96219.00;4992990;28;20260;-17
2023/02/15 07:08:32;;;;;;;0.70;0.70;;;3.60;77.00;;;2.94;65.97;96226.59;4994131;28;20187;-17
2023/02/15 07:12:41;;;;;;;0.80;0.80;;;3.70;77.20;;;2.96;65.97;96216.91;4994018;28;20672;-17
2023/02/15 07:13:47;;;;;;;0.80;0.80;;;3.70;77.30;;;3.03;65.62;96223.28;4993263;28;20216;-17
2023/02/15 07:16:14;;;;;;;0.80;0.80;;;3.70;77.20;;;3.09;65.66;96227.22;4993786;28;20194;-17
2023/02/15 07:18:41;;;;;;;0.60;0.60;;;3.70;77.20;;;3.08;65.06;96222.16;4976947;28;20259;-17
2023/02/15 07:21:09;;;;;;;0.80;0.80;;;3.70;77.00;;;3.07;65.05;96217.91;4994020;28;20194;-17
2023/02/15 07:23:37;;;;;;;0.70;0.70;;;3.80;77.00;;;3.06;65.16;96217.06;4993266;28;20537;-17
2023/02/15 07:26:06;;;;;;;0.80;0.80;;;3.80;77.10;;;3.06;65.16;96213.66;4993655;28;20251;-17
2023/02/15 07:28:34;;;;;;;0.70;0.70;;;3.80;77.10;;;3.09;65.24;96216.84;4993881;28;20206;-17
2023/02/15 07:31:05;;;;;;;0.60;0.60;;;3.80;77.10;;;3.15;65.24;96207.78;4993785;28;20217;-17
2023/02/15 07:33:33;;;;;;;0.80;0.80;;;3.80;77.30;;;3.19;65.68;96204.84;4993874;28;20191;-17
2023/02/15 07:36:03;;;;;;;0.80;0.80;;;3.90;77.40;;;3.26;65.76;96199.19;4993994;28;20197;-17
2023/02/15 07:38:36;;;;;;;0.70;0.70;;;3.90;77.50;;;3.34;65.55;96208.09;4993049;28;20215;-17
2023/02/15 07:41:08;;;;;;;0.60;0.60;;;3.90;77.60;;;3.40;65.65;96198.19;4976986;28;20190;-17
2023/02/15 07:43:38;;;;;;;0.80;0.80;;;4.00;77.60;;;3.45;65.59;96198.66;4992891;28;20190;-17
2023/02/15 07:46:12;;;;;;;0.70;0.70;;;4.00;77.60;;;3.50;65.38;96199.97;4992462;28;20254;-17
2023/02/15 07:48:42;;;;;;;0.80;0.80;;;4.10;77.60;;;3.51;65.48;96188.63;4976574;28;20214;-17
2023/02/15 07:51:11;;;;;;;0.60;0.60;;;4.10;77.50;;;3.55;65.27;96199.59;4992618;28;20201;-17
2023/02/15 07:53:39;;;;;;;0.80;0.80;;;4.20;77.50;;;3.60;65.37;96194.91;4992836;28;20205;-17
2023/02/15 07:56:11;;;;;;;0.80;0.80;;;4.30;77.50;;;3.63;65.21;96191.25;4993195;28;20190;-17
2023/02/15 07:58:50;;;;;;;0.60;0.60;;;4.30;77.50;;;3.68;65.22;96189.13;4992782;28;20191;-17
2023/02/15 08:01:33;;;;;;;0.70;0.70;;;4.30;77.50;;;3.71;65.18;96182.88;4992686;28;20182;-17
2023/02/15 08:04:00;;;;;;;0.80;0.80;;;4.40;77.40;;;3.76;65.18;96197.16;4992451;28;20289;-17
2023/02/15 08:06:31;;;;;;;0.70;0.70;;;4.40;77.30;;;3.81;64.81;96192.44;4991999;28;20244;-18
2023/02/15 08:08:58;;;;;;;0.80;0.80;;;4.50;77.30;;;3.87;64.79;96193.75;4993490;28;20198;-17
2023/02/15 08:11:32;;;;;;;0.60;0.60;;;4.50;77.30;;;3.88;64.56;96185.00;4993132;28;20687;-17
2023/02/15 08:14:06;;;;;;;0.60;0.60;;;4.50;77.20;;;3.97;64.57;96189.47;4993065;28;20233;-17
2023/02/15 08:16:45;;;;;;;0.80;0.80;;;4.60;77.20;;;4.03;64.66;96190.78;4992963;28;20178;-17
2023/02/15 08:19:22;;;;;;;0.60;0.60;;;4.70;77.10;;;4.04;64.54;96189.00;4993019;28;20251;-17
2023/02/15 08:21:56;;;;;;;0.80;0.80;;;4.70;76.90;;;4.04;64.13;96183.81;4993310;28;20221;-17
2023/02/15 08:24:28;;;;;;;0.80;0.80;;;4.80;76.90;;;4.07;63.71;96186.19;4993025;28;20174;-17
2023/02/15 08:26:56;;;;;;;0.80;0.80;;;4.80;76.70;;;4.06;63.61;96187.13;4992826;28;20197;-17
2023/02/15 08:29:27;;;;;;;0.60;0.60;;;4.90;76.70;;;4.06;63.66;96187.13;4991948;28;20202;-17
2023/02/15 08:32:02;;;;;;;0.80;0.80;;;4.90;76.60;;;4.08;63.96;96185.25;4960971;28;20186;-17
2023/02/15 08:34:33;;;;;;;0.80;0.80;;;4.90;76.60;;;4.11;64.17;96185.81;4992754;28;20210;-17
2023/02/15 08:37:00;;;;;;;0.80;0.80;;;5.00;76.60;;;4.21;63.99;96190.28;4991874;28;20178;-17
2023/02/15 08:39:28;;;;;;;0.90;0.90;;;5.00;76.60;;;4.25;63.55;96178.72;4992894;28;20260;-17
2023/02/15 08:41:55;;;;;;;0.60;0.60;;;5.00;76.50;;;4.32;63.55;96185.06;4992148;28;20310;-17
2023/02/15 08:44:22;;;;;;;0.80;0.80;;;5.10;76.60;;;4.37;63.56;96188.13;4991821;28;20209;-17
2023/02/15 08:46:50;;;;;;;0.80;0.80;;;5.10;76.50;;;4.38;63.38;96176.81;4992524;28;20645;-17
2023/02/15 08:49:20;;;;;;;0.70;0.70;;;5.10;76.40;;;4.40;63.23;96180.09;4975655;28;20207;-18
2023/02/15 08:51:49;;;;;;;0.70;0.70;;;5.20;76.30;;;4.44;63.61;96172.88;4979306;28;20630;-17
2023/02/15 08:54:20;;;;;;;0.60;0.60;;;5.30;76.40;;;4.49;63.21;96174.16;4996006;28;20564;-17
2023/02/15 08:56:47;;;;;;;0.70;0.70;;;5.30;76.30;;;4.59;63.23;96182.06;4994970;28;20565;-17
2023/02/15 08:59:19;;;;;;;0.60;0.60;;;5.30;76.20;;;4.61;62.91;96172.38;4996011;28;20190;-18
2023/02/15 09:01:49;;;;;;;0.80;0.80;;;5.40;76.10;;;4.65;62.62;96180.72;4996166;28;20269;-17
2023/02/15 09:04:16;;;;;;;0.80;0.80;;;5.50;76.00;;;4.68;62.86;96177.88;4979044;28;20263;-17
2023/02/15 09:06:45;;;;;;;0.70;0.70;;;5.50;75.80;;;4.75;62.18;96180.81;4995600;28;20689;-17
2023/02/15 09:09:17;;;;;;;0.60;0.60;;;5.60;75.60;;;4.77;62.16;96179.75;4996077;28;20213;-17
2023/02/15 09:11:47;;;;;;;0.80;0.80;;;5.70;75.30;;;4.78;61.77;96185.75;4995188;28;20524;-17
2023/02/15 09:14:19;;;;;;;0.70;0.70;;;5.70;75.20;;;4.80;62.11;96179.47;4995399;28;20214;-17
2023/02/15 09:16:48;;;;;;;0.70;0.70;;;5.70;75.30;;;4.87;62.17;96181.59;4995942;28;20222;-17
2023/02/15 09:19:17;;;;;;;0.70;0.70;;;5.80;75.30;;;4.88;61.56;96176.28;4995995;28;20263;-18
2023/02/15 09:21:45;;;;;;;0.60;0.60;;;5.80;75.00;;;4.90;61.39;96176.97;4995788;28;20698;-17
2023/02/15 09:24:14;;;;;;;0.90;0.90;;;5.90;74.90;;;4.89;61.56;96169.28;4995857;28;20197;-17
2023/02/15 09:26:44;;;;;;;0.80;0.80;;;5.90;74.70;;;4.99;61.54;96169.38;4994676;28;20645;-17
2023/02/15 09:29:14;;;;;;;0.70;0.70;;;6.00;75.00;;;4.99;60.69;96164.97;4994888;28;20265;-17
2023/02/15 09:31:48;;;;;;;0.90;0.90;;;6.00;74.40;;;5.04;61.06;96168.03;4995577;28;20198;-17
2023/02/15 09:34:19;;;;;;;0.70;0.70;;;6.00;74.30;;;5.09;61.12;96175.44;4994858;28;20232;-17
2023/02/15 09:36:47;;;;;;;0.80;0.80;;;6.10;74.40;;;5.18;61.22;96166.09;4995481;28;20182;-18
2023/02/15 09:39:23;;;;;;;0.70;0.70;;;6.10;74.40;;;5.21;60.58;96163.22;4995494;28;20201;-17
2023/02/15 09:42:40;;;;;;;0.80;0.80;;;6.20;74.00;;;5.25;60.64;96165.44;4994632;28;20178;-18
2023/02/15 09:45:39;;;;;;;0.60;0.60;;;6.30;74.20;;;5.18;60.28;96161.69;4995345;28;20626;-18
2023/02/15 09:48:46;;;;;;;0.80;0.80;;;6.30;73.60;;;5.24;61.02;96163.78;4994253;28;20220;-18
2023/02/15 09:52:15;;;;;;;0.60;0.60;;;6.30;73.80;;;5.34;60.80;96158.63;4993488;28;20198;-18
2023/02/15 09:55:04;;;;;;;0.60;0.60;;;6.40;73.80;;;5.40;60.59;96168.53;4991720;28;20245;-18
2023/02/15 09:57:53;;;;;;;0.70;0.70;;;6.40;73.40;;;5.43;60.28;96162.25;4994485;28;20534;-18
2023/02/15 10:01:09;;;;;;;0.60;0.60;;;6.50;73.40;;;5.44;59.63;96163.91;4994963;28;20186;-18
2023/02/15 10:03:50;;;;;;;0.60;0.60;;;6.50;73.40;;;5.42;60.15;96158.81;4995044;28;20604;-18
2023/02/15 10:06:49;;;;;;;0.60;0.60;;;6.50;73.40;;;5.52;59.97;96160.66;4994891;28;20234;-18
2023/02/15 10:09:46;;;;;;;0.60;0.60;;;6.60;73.50;;;5.56;60.30;96159.44;4994178;28;20203;-18
2023/02/15 10:12:29;;;;;;;0.68;0.68;;;6.60;73.50;;;5.63;60.60;96150.16;4994865;28;20289;-18
2023/02/15 10:15:11;;;;;;;0.80;0.80;;;6.70;73.60;;;5.75;60.85;96141.31;4994992;28;20213;-19
2023/02/15 10:18:04;;;;;;;0.80;0.80;;;6.80;73.60;;;5.91;60.45;96148.63;4994214;28;20213;-18
2023/02/15 10:20:59;;;;;;;0.60;0.60;;;6.90;73.80;;;6.05;60.45;96136.22;4994879;28;20175;-18
2023/02/15 10:23:55;;;;;;;0.70;0.70;;;7.00;73.80;;;6.18;59.49;96142.00;4994937;28;20178;-18
2023/02/15 10:26:44;;;;;;;0.80;0.80;;;7.10;73.80;;;6.28;59.77;96139.44;4994725;28;20194;-18
2023/02/15 10:29:36;;;;;;;0.60;0.60;;;7.20;73.90;;;6.42;59.50;96138.22;4993893;28;20198;-18
2023/02/15 10:32:23;;;;;;;0.60;0.60;;;7.40;73.80;;;6.48;58.96;96129.03;4994937;28;20190;-18
2023/02/15 10:35:18;;;;;;;0.60;0.60;;;7.50;73.50;;;6.63;58.86;96137.25;4993771;28;20206;-20
2023/02/15 10:38:03;;;;;;;0.70;0.70;;;7.60;73.20;;;6.73;59.00;96128.47;4994691;28;20193;-17
2023/02/15 10:41:02;;;;;;;0.63;0.63;;;7.70;73.20;;;6.87;59.03;96132.47;4993916;28;20613;-17
2023/02/15 10:44:20;;;;;;;0.60;0.60;;;7.80;73.10;;;6.99;58.44;96127.91;4994110;28;20186;-17
2023/02/15 10:47:24;;;;;;;0.60;0.60;;;7.90;73.10;;;7.11;58.38;96117.34;4993739;28;20281;-17
2023/02/15 10:50:34;;;;;;;0.70;0.70;;;8.00;72.80;;;7.22;58.51;96119.78;4993935;28;20622;-17
2023/02/15 10:53:28;;;;;;;0.60;0.60;;;8.10;73.00;;;7.32;58.07;96112.78;4994487;28;20190;-17
2023/02/15 10:56:20;;;;;;;0.60;0.60;;;8.20;72.70;;;7.32;57.74;96104.94;4993777;28;20228;-17
2023/02/15 10:59:18;;;;;;;0.70;0.70;;;8.30;72.50;;;7.41;57.76;96107.63;4988043;28;20206;-17
2023/02/15 11:02:17;;;;;;;0.60;0.60;;;8.40;72.20;;;7.46;57.83;96095.81;4993672;28;20179;-17
2023/02/15 11:04:50;;;;;;;0.70;0.70;;;8.40;72.00;;;7.51;57.33;96093.59;4994743;28;20305;-17
2023/02/15 11:07:33;;;;;;;0.70;0.70;;;8.50;71.90;;;7.56;56.84;96095.78;4994118;28;20238;-17
2023/02/15 11:10:38;;;;;;;0.70;0.70;;;8.60;71.50;;;7.57;56.94;96092.22;4977275;28;20205;-17
2023/02/15 11:13:11;;;;;;;0.60;0.60;;;8.60;71.50;;;7.55;56.72;96083.69;4993402;28;20197;-17
2023/02/15 11:15:53;;;;;;;0.60;0.60;;;8.70;70.90;;;7.58;56.87;96079.97;4993324;28;20575;-18
2023/02/15 11:18:27;;;;;;;0.60;0.60;;;8.70;70.90;;;7.66;56.88;96085.28;4993422;28;20235;-17
2023/02/15 11:20:58;;;;;;;0.80;0.80;;;8.80;71.10;;;7.72;56.54;96086.50;4994467;28;20197;-17
2023/02/15 11:23:26;;;;;;;0.80;0.80;;;8.80;71.10;;;7.80;56.40;96079.59;4993491;28;20570;-17
2023/02/15 11:26:19;;;;;;;0.80;0.80;;;8.90;70.80;;;7.81;56.36;96076.03;4993294;28;20194;-17
2023/02/15 11:28:54;;;;;;;0.70;0.70;;;8.90;70.70;;;7.88;56.41;96075.44;4996028;28;20589;-17